createdAt,value
2019-04-18T00:00:11.445Z,0.00
2019-04-18T00:01:11.426Z,0.00
2019-04-18T00:02:12.796Z,0.00
2019-04-18T00:03:15.532Z,0.00
2019-04-18T00:04:11.389Z,0.00
2019-04-18T00:05:11.404Z,0.00
2019-04-18T00:06:11.358Z,0.00
2019-04-18T00:07:11.341Z,0.00
2019-04-18T00:08:11.340Z,0.00
2019-04-18T00:09:11.315Z,0.00
2019-04-18T00:10:11.303Z,0.00
2019-04-18T00:11:11.293Z,0.00
2019-04-18T00:12:11.274Z,0.00
2019-04-18T00:13:11.271Z,0.00
2019-04-18T00:14:11.306Z,0.00
2019-04-18T00:15:11.235Z,0.00
2019-04-18T00:16:11.222Z,0.00
2019-04-18T00:17:11.205Z,0.00
2019-04-18T00:18:11.200Z,0.00
2019-04-18T00:19:13.160Z,0.00
2019-04-18T00:20:11.166Z,0.00
2019-04-18T00:21:11.155Z,0.00
2019-04-18T00:22:11.138Z,0.00
2019-04-18T00:23:11.123Z,0.00
2019-04-18T00:24:11.145Z,0.00
2019-04-18T00:25:11.120Z,0.00
2019-04-18T00:26:12.632Z,0.00
2019-04-18T00:27:15.404Z,0.00
2019-04-18T00:28:11.062Z,0.00
2019-04-18T00:29:11.039Z,0.00
2019-04-18T00:30:11.040Z,0.00
2019-04-18T00:31:11.014Z,0.00
2019-04-18T00:32:13.486Z,0.00
2019-04-18T00:33:10.995Z,0.00
2019-04-18T00:34:15.815Z,0.00
2019-04-18T00:35:12.263Z,0.00
2019-04-18T00:36:15.078Z,0.00
2019-04-18T00:37:10.931Z,0.00
2019-04-18T00:38:10.929Z,0.00
2019-04-18T00:39:10.906Z,0.00
2019-04-18T00:40:12.906Z,0.00
2019-04-18T00:41:12.946Z,0.00
2019-04-18T00:42:10.864Z,0.00
2019-04-18T00:43:10.850Z,0.00
2019-04-18T00:44:10.833Z,0.00
2019-04-18T00:45:12.557Z,0.00
2019-04-18T00:46:15.720Z,0.00
2019-04-18T00:47:10.792Z,0.00
2019-04-18T00:48:10.777Z,0.00
2019-04-18T00:49:10.770Z,0.00
2019-04-18T00:50:10.749Z,0.00
2019-04-18T00:51:10.767Z,0.00
2019-04-18T00:52:10.796Z,0.00
2019-04-18T00:53:10.718Z,0.00
2019-04-18T00:54:10.696Z,0.00
2019-04-18T00:55:10.682Z,0.00
2019-04-18T00:56:10.672Z,0.00
2019-04-18T00:57:13.328Z,0.00
2019-04-18T00:58:10.644Z,0.00
2019-04-18T00:59:10.620Z,0.00
2019-04-18T01:00:13.658Z,0.00
2019-04-18T01:01:14.084Z,0.00
2019-04-18T01:02:11.038Z,0.00
2019-04-18T01:03:10.587Z,0.00
2019-04-18T01:04:25.811Z,0.00
2019-04-18T01:05:11.949Z,0.00
2019-04-18T01:06:12.873Z,0.00
2019-04-18T01:07:10.514Z,0.00
2019-04-18T01:08:10.630Z,0.00
2019-04-18T01:09:10.485Z,0.00
2019-04-18T01:10:10.577Z,0.00
2019-04-18T01:11:10.453Z,0.00
2019-04-18T01:12:10.460Z,0.00
2019-04-18T01:13:11.273Z,0.00
2019-04-18T01:14:15.470Z,0.00
2019-04-18T01:15:10.394Z,0.00
2019-04-18T01:16:10.379Z,0.00
2019-04-18T01:17:12.219Z,0.00
2019-04-18T01:18:12.613Z,0.00
2019-04-18T01:19:10.366Z,0.00
2019-04-18T01:20:10.504Z,0.00
2019-04-18T01:21:10.477Z,0.00
2019-04-18T01:22:14.334Z,0.00
2019-04-18T01:23:10.285Z,0.00
2019-04-18T01:24:10.897Z,0.00
2019-04-18T01:25:10.756Z,0.00
2019-04-18T01:26:14.106Z,0.00
2019-04-18T01:27:10.228Z,0.00
2019-04-18T01:28:10.212Z,0.00
2019-04-18T01:29:10.226Z,0.00
2019-04-18T01:30:10.181Z,0.00
2019-04-18T01:31:10.176Z,0.00
2019-04-18T01:32:10.162Z,0.00
2019-04-18T01:33:11.038Z,0.00
2019-04-18T01:34:13.871Z,0.00
2019-04-18T01:35:10.106Z,0.00
2019-04-18T01:36:10.100Z,0.00
2019-04-18T01:37:10.081Z,0.00
2019-04-18T01:38:11.273Z,0.00
2019-04-18T01:39:14.393Z,0.00
2019-04-18T01:40:10.041Z,0.00
2019-04-18T01:41:10.030Z,0.00
2019-04-18T01:42:10.015Z,0.00
2019-04-18T01:43:10.006Z,0.00
2019-04-18T01:44:12.702Z,0.00
2019-04-18T01:45:10.264Z,0.00
2019-04-18T01:46:09.962Z,0.00
2019-04-18T01:47:09.963Z,0.00
2019-04-18T01:48:09.933Z,0.00
2019-04-18T01:49:12.012Z,0.00
2019-04-18T01:50:15.619Z,0.00
2019-04-18T01:51:09.880Z,0.00
2019-04-18T01:52:09.897Z,0.00
2019-04-18T01:53:09.855Z,0.00
2019-04-18T01:54:13.363Z,0.00
2019-04-18T01:55:09.821Z,0.00
2019-04-18T01:56:09.845Z,0.00
2019-04-18T01:57:09.805Z,0.00
2019-04-18T01:58:09.777Z,0.00
2019-04-18T01:59:10.517Z,0.00
2019-04-18T02:00:13.114Z,0.00
2019-04-18T02:01:09.737Z,0.00
2019-04-18T02:02:09.729Z,0.00
2019-04-18T02:03:09.717Z,0.00
2019-04-18T02:04:10.535Z,0.00
2019-04-18T02:05:10.154Z,0.00
2019-04-18T02:06:10.763Z,0.00
2019-04-18T02:07:11.251Z,0.00
2019-04-18T02:08:09.635Z,0.00
2019-04-18T02:09:09.644Z,0.00
2019-04-18T02:10:09.941Z,0.00
2019-04-18T02:11:09.820Z,0.00
2019-04-18T02:12:11.933Z,0.00
2019-04-18T02:13:09.563Z,0.00
2019-04-18T02:14:09.873Z,0.00
2019-04-18T02:15:10.101Z,0.00
2019-04-18T02:16:12.273Z,0.00
2019-04-18T02:17:09.515Z,0.00
2019-04-18T02:18:09.490Z,0.00
2019-04-18T02:19:09.987Z,0.00
2019-04-18T02:20:09.465Z,0.00
2019-04-18T02:21:11.052Z,0.00
2019-04-18T02:22:14.559Z,0.00
2019-04-18T02:23:09.418Z,0.00
2019-04-18T02:24:09.430Z,0.00
2019-04-18T02:25:09.782Z,0.00
2019-04-18T02:26:14.980Z,0.00
2019-04-18T02:27:09.361Z,0.00
2019-04-18T02:28:09.355Z,0.00
2019-04-18T02:29:10.307Z,0.00
2019-04-18T02:30:19.348Z,0.00
2019-04-18T02:31:09.330Z,0.00
2019-04-18T02:32:09.286Z,0.00
2019-04-18T02:33:12.253Z,0.00
2019-04-18T02:34:09.473Z,0.00
2019-04-18T02:35:19.861Z,0.00
2019-04-18T02:36:09.257Z,0.00
2019-04-18T02:37:11.875Z,0.00
2019-04-18T02:38:09.663Z,0.00
2019-04-18T02:39:09.450Z,0.00
2019-04-18T02:40:09.177Z,0.00
2019-04-18T02:41:11.566Z,0.00
2019-04-18T02:42:09.189Z,0.00
2019-04-18T02:43:09.363Z,0.00
2019-04-18T02:44:09.111Z,0.00
2019-04-18T02:45:09.100Z,0.00
2019-04-18T02:46:11.519Z,0.00
2019-04-18T02:47:09.311Z,0.00
2019-04-18T02:48:09.344Z,0.00
2019-04-18T02:49:09.036Z,0.00
2019-04-18T02:50:10.785Z,0.00
2019-04-18T02:51:11.583Z,0.00
2019-04-18T02:52:09.032Z,0.00
2019-04-18T02:53:08.983Z,0.00
2019-04-18T02:54:12.555Z,0.00
2019-04-18T02:55:08.959Z,0.00
2019-04-18T02:56:08.973Z,0.00
2019-04-18T02:57:08.920Z,0.00
2019-04-18T02:58:09.718Z,0.00
2019-04-18T02:59:10.509Z,0.00
2019-04-18T03:00:08.883Z,0.00
2019-04-18T03:01:08.945Z,0.00
2019-04-18T03:02:08.979Z,0.00
2019-04-18T03:03:10.037Z,0.00
2019-04-18T03:04:09.217Z,0.00
2019-04-18T03:05:08.806Z,0.00
2019-04-18T03:06:12.378Z,0.00
2019-04-18T03:07:08.801Z,0.00
2019-04-18T03:08:08.764Z,0.00
2019-04-18T03:09:08.747Z,0.00
2019-04-18T03:10:11.887Z,0.00
2019-04-18T03:11:08.723Z,0.00
2019-04-18T03:12:08.733Z,0.00
2019-04-18T03:13:09.215Z,0.00
2019-04-18T03:14:11.310Z,0.00
2019-04-18T03:15:09.214Z,0.00
2019-04-18T03:16:09.680Z,0.00
2019-04-18T03:17:08.662Z,0.00
2019-04-18T03:18:08.620Z,0.00
2019-04-18T03:19:10.142Z,0.00
2019-04-18T03:20:08.617Z,0.00
2019-04-18T03:21:08.570Z,0.00
2019-04-18T03:22:08.560Z,0.00
2019-04-18T03:23:09.242Z,0.00
2019-04-18T03:24:09.454Z,0.00
2019-04-18T03:25:08.746Z,0.00
2019-04-18T03:26:08.508Z,0.00
2019-04-18T03:27:08.482Z,0.00
2019-04-18T03:28:10.918Z,0.00
2019-04-18T03:29:08.729Z,0.00
2019-04-18T03:30:09.100Z,0.00
2019-04-18T03:31:20.482Z,0.00
2019-04-18T03:32:09.486Z,0.00
2019-04-18T03:33:16.546Z,0.00
2019-04-18T03:34:11.436Z,0.00
2019-04-18T03:35:08.385Z,0.00
2019-04-18T03:36:08.346Z,0.00
2019-04-18T03:37:08.356Z,0.00
2019-04-18T03:38:12.365Z,0.00
2019-04-18T03:39:08.301Z,0.00
2019-04-18T03:40:08.328Z,0.00
2019-04-18T03:41:08.274Z,0.00
2019-04-18T03:42:08.411Z,0.00
2019-04-18T03:43:10.173Z,0.00
2019-04-18T03:44:10.548Z,0.00
2019-04-18T03:45:08.239Z,0.00
2019-04-18T03:46:08.198Z,0.00
2019-04-18T03:47:08.691Z,0.00
2019-04-18T03:48:08.554Z,0.00
2019-04-18T03:49:10.794Z,0.00
2019-04-18T03:50:08.523Z,0.00
2019-04-18T03:51:08.186Z,0.00
2019-04-18T03:52:08.531Z,0.00
2019-04-18T03:53:08.095Z,4.00
2019-04-18T03:54:09.905Z,0.00
2019-04-18T03:55:08.588Z,0.00
2019-04-18T03:56:08.050Z,4.00
2019-04-18T03:57:08.053Z,0.00
2019-04-18T03:58:10.585Z,4.00
2019-04-18T03:59:08.001Z,4.00
2019-04-18T04:00:08.063Z,4.00
2019-04-18T04:01:07.973Z,4.00
2019-04-18T04:02:07.960Z,8.00
2019-04-18T04:03:12.696Z,8.00
2019-04-18T04:04:08.036Z,8.00
2019-04-18T04:05:08.150Z,12.00
2019-04-18T04:06:16.927Z,12.00
2019-04-18T04:07:08.053Z,16.00
2019-04-18T04:08:07.885Z,16.00
2019-04-18T04:09:07.862Z,20.00
2019-04-18T04:10:13.335Z,24.00
2019-04-18T04:11:08.190Z,28.00
2019-04-18T04:12:08.182Z,28.00
2019-04-18T04:13:07.803Z,32.00
2019-04-18T04:14:08.876Z,36.00
2019-04-18T04:15:14.644Z,44.00
2019-04-18T04:16:08.187Z,44.00
2019-04-18T04:17:07.732Z,52.00
2019-04-18T04:18:10.828Z,60.00
2019-04-18T04:19:07.707Z,68.00
2019-04-18T04:20:08.291Z,76.00
2019-04-18T04:21:07.715Z,84.00
2019-04-18T04:22:10.506Z,92.00
2019-04-18T04:23:07.648Z,100.00
2019-04-18T04:24:07.630Z,112.00
2019-04-18T04:25:09.157Z,124.00
2019-04-18T04:26:07.705Z,136.00
2019-04-18T04:27:07.688Z,148.00
2019-04-18T04:28:07.597Z,160.00
2019-04-18T04:29:07.806Z,172.00
2019-04-18T04:30:12.724Z,188.00
2019-04-18T04:31:07.548Z,200.00
2019-04-18T04:32:07.793Z,216.00
2019-04-18T04:33:07.891Z,232.00
2019-04-18T04:34:10.072Z,248.00
2019-04-18T04:35:07.885Z,264.00
2019-04-18T04:36:20.605Z,280.00
2019-04-18T04:37:08.420Z,300.00
2019-04-18T04:38:08.147Z,320.00
2019-04-18T04:39:07.409Z,336.00
2019-04-18T04:40:07.887Z,356.00
2019-04-18T04:41:07.383Z,376.00
2019-04-18T04:42:13.159Z,392.00
2019-04-18T04:43:07.347Z,412.00
2019-04-18T04:44:07.332Z,432.00
2019-04-18T04:45:07.309Z,452.00
2019-04-18T04:46:08.949Z,472.00
2019-04-18T04:47:07.307Z,492.00
2019-04-18T04:48:07.272Z,512.00
2019-04-18T04:49:07.298Z,532.00
2019-04-18T04:50:07.955Z,552.00
2019-04-18T04:51:08.606Z,572.00
2019-04-18T04:52:07.317Z,592.00
2019-04-18T04:53:07.215Z,612.00
2019-04-18T04:54:08.438Z,632.00
2019-04-18T04:55:07.156Z,652.00
2019-04-18T04:56:07.139Z,672.00
2019-04-18T04:57:07.135Z,696.00
2019-04-18T04:58:07.139Z,716.00
2019-04-18T04:59:11.298Z,736.00
2019-04-18T05:00:07.104Z,756.00
2019-04-18T05:01:07.067Z,776.00
2019-04-18T05:02:08.790Z,796.00
2019-04-18T05:03:14.004Z,816.00
2019-04-18T05:04:07.022Z,836.00
2019-04-18T05:05:07.013Z,856.00
2019-04-18T05:06:07.001Z,876.00
2019-04-18T05:07:06.996Z,892.00
2019-04-18T05:08:07.518Z,912.00
2019-04-18T05:09:06.949Z,936.00
2019-04-18T05:10:12.782Z,956.00
2019-04-18T05:11:06.916Z,976.00
2019-04-18T05:12:10.613Z,1000.00
2019-04-18T05:13:09.255Z,1020.00
2019-04-18T05:14:06.876Z,1036.00
2019-04-18T05:15:10.296Z,1060.00
2019-04-18T05:16:07.023Z,1080.00
2019-04-18T05:17:06.822Z,1100.00
2019-04-18T05:18:06.878Z,1120.00
2019-04-18T05:19:06.865Z,1140.00
2019-04-18T05:20:06.774Z,1160.00
2019-04-18T05:21:06.785Z,1180.00
2019-04-18T05:22:06.907Z,1204.00
2019-04-18T05:23:06.794Z,1216.00
2019-04-18T05:24:09.942Z,1236.00
2019-04-18T05:25:09.851Z,1256.00
2019-04-18T05:26:06.954Z,1272.00
2019-04-18T05:27:06.830Z,1292.00
2019-04-18T05:28:06.943Z,1316.00
2019-04-18T05:29:06.998Z,1332.00
2019-04-18T05:30:06.878Z,1348.00
2019-04-18T05:31:06.807Z,1368.00
2019-04-18T05:32:08.680Z,1384.00
2019-04-18T05:33:10.587Z,1400.00
2019-04-18T05:34:06.728Z,1420.00
2019-04-18T05:35:06.653Z,1436.00
2019-04-18T05:36:06.936Z,1460.00
2019-04-18T05:37:08.177Z,1484.00
2019-04-18T05:38:06.510Z,1496.00
2019-04-18T05:39:06.527Z,1500.00
2019-04-18T05:40:06.473Z,1524.00
2019-04-18T05:41:10.917Z,1544.00
2019-04-18T05:42:06.446Z,1568.00
2019-04-18T05:43:06.431Z,1584.00
2019-04-18T05:44:06.904Z,1608.00
2019-04-18T05:45:09.462Z,1636.00
2019-04-18T05:46:06.564Z,1664.00
2019-04-18T05:47:06.367Z,1680.00
2019-04-18T05:48:06.408Z,1684.00
2019-04-18T05:49:06.628Z,1684.00
2019-04-18T05:50:10.850Z,1704.00
2019-04-18T05:51:06.564Z,1736.00
2019-04-18T05:52:06.303Z,1760.00
2019-04-18T05:53:06.295Z,1772.00
2019-04-18T05:54:08.335Z,1784.00
2019-04-18T05:55:06.819Z,1788.00
2019-04-18T05:56:06.231Z,1800.00
2019-04-18T05:57:06.220Z,1832.00
2019-04-18T05:58:08.452Z,1864.00
2019-04-18T05:59:06.215Z,1888.00
2019-04-18T06:00:06.175Z,1912.00
2019-04-18T06:01:08.272Z,1924.00
2019-04-18T06:02:06.146Z,1940.00
2019-04-18T06:03:06.493Z,1956.00
2019-04-18T06:04:06.626Z,1968.00
2019-04-18T06:05:07.168Z,1984.00
2019-04-18T06:06:08.993Z,2000.00
2019-04-18T06:07:14.466Z,2020.00
2019-04-18T06:08:09.710Z,2036.00
2019-04-18T06:09:06.567Z,2052.00
2019-04-18T06:10:06.032Z,2068.00
2019-04-18T06:11:06.488Z,2084.00
2019-04-18T06:12:09.977Z,2108.00
2019-04-18T06:13:05.995Z,2120.00
2019-04-18T06:14:05.999Z,2136.00
2019-04-18T06:15:05.958Z,2152.00
2019-04-18T06:16:06.301Z,2168.00
2019-04-18T06:17:05.934Z,2184.00
2019-04-18T06:18:08.889Z,2192.00
2019-04-18T06:19:05.931Z,2196.00
2019-04-18T06:20:06.025Z,2196.00
2019-04-18T06:21:07.449Z,2192.00
2019-04-18T06:22:05.891Z,2188.00
2019-04-18T06:23:05.838Z,2192.00
2019-04-18T06:24:07.970Z,2196.00
2019-04-18T06:25:12.983Z,2204.00
2019-04-18T06:26:05.799Z,2220.00
2019-04-18T06:27:07.870Z,2236.00
2019-04-18T06:28:06.963Z,2264.00
2019-04-18T06:29:06.569Z,2296.00
2019-04-18T06:30:05.764Z,2324.00
2019-04-18T06:31:05.727Z,2340.00
2019-04-18T06:32:05.718Z,2356.00
2019-04-18T06:33:05.958Z,2352.00
2019-04-18T06:34:10.250Z,2372.00
2019-04-18T06:35:05.865Z,2396.00
2019-04-18T06:36:05.947Z,2416.00
2019-04-18T06:37:05.642Z,2432.00
2019-04-18T06:38:05.624Z,2440.00
2019-04-18T06:39:06.061Z,2456.00
2019-04-18T06:40:05.595Z,2476.00
2019-04-18T06:41:07.692Z,2488.00
2019-04-18T06:42:06.561Z,2496.00
2019-04-18T06:43:05.822Z,2496.00
2019-04-18T06:44:05.547Z,2484.00
2019-04-18T06:45:06.951Z,2484.00
2019-04-18T06:46:05.516Z,2492.00
2019-04-18T06:47:05.504Z,2472.00
2019-04-18T06:48:06.437Z,2476.00
2019-04-18T06:49:06.707Z,2508.00
2019-04-18T06:50:07.346Z,2536.00
2019-04-18T06:51:07.004Z,2588.00
2019-04-18T06:52:06.083Z,2620.00
2019-04-18T06:53:06.497Z,2632.00
2019-04-18T06:54:05.408Z,2632.00
2019-04-18T06:55:05.918Z,2616.00
2019-04-18T06:56:07.373Z,2604.00
2019-04-18T06:57:05.417Z,2620.00
2019-04-18T06:58:05.352Z,2656.00
2019-04-18T06:59:05.337Z,2720.00
2019-04-18T07:00:05.323Z,2760.00
2019-04-18T07:01:05.318Z,2772.00
2019-04-18T07:02:10.815Z,2780.00
2019-04-18T07:03:05.315Z,2800.00
2019-04-18T07:04:05.273Z,2816.00
2019-04-18T07:05:05.255Z,2840.00
2019-04-18T07:06:08.779Z,2860.00
2019-04-18T07:07:05.225Z,2880.00
2019-04-18T07:08:05.245Z,2900.00
2019-04-18T07:09:05.208Z,2912.00
2019-04-18T07:10:07.469Z,2908.00
2019-04-18T07:11:05.178Z,2920.00
2019-04-18T07:12:06.678Z,2932.00
2019-04-18T07:13:05.184Z,2952.00
2019-04-18T07:14:07.274Z,2980.00
2019-04-18T07:15:05.531Z,3004.00
2019-04-18T07:16:05.961Z,3036.00
2019-04-18T07:17:08.043Z,3080.00
2019-04-18T07:18:05.117Z,3084.00
2019-04-18T07:19:05.068Z,3112.00
2019-04-18T07:20:07.515Z,3152.00
2019-04-18T07:21:05.040Z,3184.00
2019-04-18T07:22:05.034Z,3132.00
2019-04-18T07:23:05.665Z,3088.00
2019-04-18T07:24:05.012Z,3112.00
2019-04-18T07:25:05.025Z,3204.00
2019-04-18T07:26:07.173Z,3268.00
2019-04-18T07:27:04.961Z,3228.00
2019-04-18T07:28:04.951Z,3152.00
2019-04-18T07:29:04.974Z,3188.00
2019-04-18T07:30:06.183Z,3180.00
2019-04-18T07:31:04.914Z,3272.00
2019-04-18T07:32:04.898Z,3368.00
2019-04-18T07:33:04.884Z,3380.00
2019-04-18T07:34:04.880Z,3404.00
2019-04-18T07:35:04.998Z,3500.00
2019-04-18T07:36:04.849Z,3588.00
2019-04-18T07:37:04.834Z,3592.00
2019-04-18T07:38:06.835Z,3504.00
2019-04-18T07:39:04.816Z,3544.00
2019-04-18T07:40:06.064Z,3652.00
2019-04-18T07:41:04.823Z,3696.00
2019-04-18T07:42:04.787Z,3708.00
2019-04-18T07:43:04.758Z,3860.00
2019-04-18T07:44:07.580Z,3820.00
2019-04-18T07:45:05.449Z,3784.00
2019-04-18T07:46:04.756Z,3588.00
2019-04-18T07:47:05.089Z,3560.00
2019-04-18T07:48:04.698Z,3660.00
2019-04-18T07:49:04.691Z,3756.00
2019-04-18T07:50:04.682Z,3804.00
2019-04-18T07:51:05.492Z,3820.00
2019-04-18T07:52:04.651Z,4012.00
2019-04-18T07:53:04.643Z,4180.00
2019-04-18T07:54:04.676Z,4152.00
2019-04-18T07:55:04.618Z,3964.00
2019-04-18T07:56:06.947Z,4180.00
2019-04-18T07:57:04.597Z,4332.00
2019-04-18T07:58:04.584Z,4416.00
2019-04-18T07:59:06.627Z,4436.00
2019-04-18T08:00:04.563Z,4456.00
2019-04-18T08:01:04.550Z,4528.00
2019-04-18T08:02:04.559Z,4576.00
2019-04-18T08:03:06.330Z,4280.00
2019-04-18T08:04:13.420Z,4032.00
2019-04-18T08:05:07.489Z,4012.00
2019-04-18T08:06:04.657Z,4232.00
2019-04-18T08:07:04.476Z,4624.00
2019-04-18T08:08:04.468Z,4780.00
2019-04-18T08:09:04.459Z,4856.00
2019-04-18T08:10:18.487Z,4944.00
2019-04-18T08:11:04.443Z,4908.00
2019-04-18T08:12:04.424Z,4948.00
2019-04-18T08:13:04.408Z,5048.00
2019-04-18T08:14:04.408Z,4772.00
2019-04-18T08:15:04.386Z,4536.00
2019-04-18T08:16:04.386Z,4624.00
2019-04-18T08:17:04.508Z,4572.00
2019-04-18T08:18:04.362Z,4624.00
2019-04-18T08:19:04.353Z,4532.00
2019-04-18T08:20:04.348Z,4856.00
2019-04-18T08:21:04.334Z,5072.00
2019-04-18T08:22:04.348Z,5652.00
2019-04-18T08:23:17.908Z,11164.00
2019-04-18T08:24:04.593Z,13820.00
2019-04-18T08:25:04.290Z,18208.00
2019-04-18T08:26:04.280Z,21184.00
2019-04-18T08:27:04.464Z,8864.00
2019-04-18T08:28:07.718Z,6452.00
2019-04-18T08:29:04.250Z,6216.00
2019-04-18T08:30:04.243Z,6764.00
2019-04-18T08:31:04.230Z,8692.00
2019-04-18T08:32:07.682Z,12700.00
2019-04-18T08:33:04.231Z,22080.00
2019-04-18T08:34:04.200Z,32832.00
2019-04-18T08:35:04.185Z,30592.00
2019-04-18T08:36:06.100Z,26656.00
2019-04-18T08:37:04.170Z,24256.00
2019-04-18T08:38:04.182Z,49664.00
2019-04-18T08:39:04.965Z,55360.00
2019-04-18T08:40:04.140Z,70304.00
2019-04-18T08:41:04.136Z,67488.00
2019-04-18T08:42:04.123Z,64352.00
2019-04-18T08:43:06.652Z,46848.00
2019-04-18T08:44:04.095Z,46272.00
2019-04-18T08:45:04.096Z,44256.00
2019-04-18T08:46:05.553Z,46400.00
2019-04-18T08:47:04.079Z,47456.00
2019-04-18T08:48:06.931Z,41440.00
2019-04-18T08:49:04.070Z,46976.00
2019-04-18T08:50:06.410Z,43136.00
2019-04-18T08:51:04.069Z,41952.00
2019-04-18T08:52:04.040Z,28288.00
2019-04-18T08:53:04.070Z,29024.00
2019-04-18T08:54:04.022Z,33088.00
2019-04-18T08:55:04.005Z,34656.00
2019-04-18T08:56:04.003Z,27648.00
2019-04-18T08:57:06.086Z,19200.00
2019-04-18T08:58:03.978Z,14016.00
2019-04-18T08:59:04.003Z,16544.00
2019-04-18T09:00:03.971Z,19392.00
2019-04-18T09:01:03.962Z,20576.00
2019-04-18T09:02:03.952Z,16480.00
2019-04-18T09:03:03.952Z,16160.00
2019-04-18T09:04:03.928Z,15712.00
2019-04-18T09:05:18.102Z,17152.00
2019-04-18T09:06:04.663Z,16480.00
2019-04-18T09:07:04.523Z,10720.00
2019-04-18T09:08:09.851Z,10624.00
2019-04-18T09:09:04.800Z,12212.00
2019-04-18T09:10:07.184Z,10836.00
2019-04-18T09:11:04.773Z,13452.00
2019-04-18T09:12:04.164Z,11716.00
2019-04-18T09:13:07.711Z,9992.00
2019-04-18T09:14:05.341Z,9176.00
2019-04-18T09:15:04.130Z,8636.00
2019-04-18T09:16:04.160Z,9792.00
2019-04-18T09:17:03.881Z,7256.00
2019-04-18T09:18:09.771Z,8304.00
2019-04-18T09:19:03.873Z,7160.00
2019-04-18T09:20:11.544Z,7224.00
2019-04-18T09:21:06.815Z,6748.00
2019-04-18T09:22:03.873Z,7360.00
2019-04-18T09:23:06.795Z,7360.00
2019-04-18T09:24:03.952Z,7792.00
2019-04-18T09:25:04.679Z,8100.00
2019-04-18T09:26:04.680Z,8372.00
2019-04-18T09:27:04.788Z,8364.00
2019-04-18T09:28:04.412Z,8756.00
2019-04-18T09:29:03.724Z,9120.00
2019-04-18T09:30:06.377Z,9488.00
2019-04-18T09:31:03.706Z,9952.00
2019-04-18T09:32:03.739Z,10680.00
2019-04-18T09:33:03.701Z,11756.00
2019-04-18T09:34:06.733Z,13036.00
2019-04-18T09:35:06.960Z,16928.00
2019-04-18T09:36:03.681Z,47072.00
2019-04-18T09:37:06.394Z,72448.00
2019-04-18T09:38:03.669Z,74976.00
2019-04-18T09:39:08.849Z,72768.00
2019-04-18T09:40:03.706Z,69536.00
2019-04-18T09:41:03.654Z,71680.00
2019-04-18T09:42:04.805Z,72192.00
2019-04-18T09:43:19.702Z,70592.00
2019-04-18T09:44:03.638Z,70528.00
2019-04-18T09:45:03.638Z,73216.00
2019-04-18T09:46:05.181Z,57088.00
2019-04-18T09:47:03.636Z,51616.00
2019-04-18T09:48:03.651Z,59936.00
2019-04-18T09:49:04.656Z,55488.00
2019-04-18T09:50:03.644Z,42016.00
2019-04-18T09:51:03.608Z,38816.00
2019-04-18T09:52:03.609Z,49504.00
2019-04-18T09:53:03.599Z,65408.00
2019-04-18T09:54:03.596Z,61088.00
2019-04-18T09:55:03.620Z,62176.00
2019-04-18T09:56:03.670Z,62560.00
2019-04-18T09:57:03.597Z,56960.00
2019-04-18T09:58:03.752Z,54400.00
2019-04-18T09:59:03.586Z,62240.00
2019-04-18T10:00:11.446Z,62880.00
2019-04-18T10:01:03.579Z,63008.00
2019-04-18T10:02:03.574Z,61696.00
2019-04-18T10:03:03.589Z,60032.00
2019-04-18T10:04:06.719Z,57696.00
2019-04-18T10:05:03.635Z,58336.00
2019-04-18T10:06:03.570Z,56288.00
2019-04-18T10:07:03.558Z,56480.00
2019-04-18T10:08:03.552Z,56256.00
2019-04-18T10:09:03.556Z,60224.00
2019-04-18T10:10:03.555Z,51872.00
2019-04-18T10:11:03.553Z,46880.00
2019-04-18T10:12:07.290Z,35456.00
2019-04-18T10:13:03.543Z,47680.00
2019-04-18T10:14:04.997Z,52160.00
2019-04-18T10:15:13.369Z,47616.00
2019-04-18T10:16:06.018Z,45984.00
2019-04-18T10:17:03.569Z,51040.00
2019-04-18T10:18:03.542Z,48928.00
2019-04-18T10:19:03.531Z,59456.00
2019-04-18T10:20:03.621Z,56800.00
2019-04-18T10:21:03.565Z,52096.00
2019-04-18T10:22:03.554Z,61920.00
2019-04-18T10:23:03.521Z,62144.00
2019-04-18T10:24:03.529Z,52160.00
2019-04-18T10:25:03.523Z,52896.00
2019-04-18T10:26:03.510Z,64576.00
2019-04-18T10:27:03.536Z,71008.00
2019-04-18T10:28:03.535Z,71680.00
2019-04-18T10:29:03.510Z,72320.00
2019-04-18T10:30:03.516Z,65024.00
2019-04-18T10:31:03.502Z,61344.00
2019-04-18T10:32:03.536Z,54400.00
2019-04-18T10:33:03.495Z,66208.00
2019-04-18T10:34:03.496Z,72288.00
2019-04-18T10:35:03.502Z,61088.00
2019-04-18T10:36:03.502Z,56832.00
2019-04-18T10:37:03.527Z,53728.00
2019-04-18T10:38:07.408Z,39776.00
2019-04-18T10:39:03.485Z,41984.00
2019-04-18T10:40:03.482Z,52320.00
2019-04-18T10:41:03.479Z,51872.00
2019-04-18T10:42:03.623Z,39072.00
2019-04-18T10:43:03.485Z,32480.00
2019-04-18T10:44:03.481Z,31008.00
2019-04-18T10:45:03.482Z,52416.00
2019-04-18T10:46:03.481Z,50240.00
2019-04-18T10:47:03.474Z,39872.00
2019-04-18T10:48:03.501Z,34816.00
2019-04-18T10:49:03.496Z,32128.00
2019-04-18T10:50:03.462Z,42560.00
2019-04-18T10:51:03.473Z,39488.00
2019-04-18T10:52:03.467Z,29856.00
2019-04-18T10:53:03.464Z,25568.00
2019-04-18T10:54:03.481Z,27808.00
2019-04-18T10:55:03.459Z,41600.00
2019-04-18T10:56:03.458Z,32576.00
2019-04-18T10:57:04.534Z,26048.00
2019-04-18T10:58:03.538Z,18208.00
2019-04-18T10:59:03.486Z,11268.00
2019-04-18T11:00:03.468Z,21408.00
2019-04-18T11:01:03.469Z,44096.00
2019-04-18T11:02:04.073Z,45120.00
2019-04-18T11:03:03.424Z,49824.00
2019-04-18T11:04:15.863Z,48512.00
2019-04-18T11:05:03.434Z,56448.00
2019-04-18T11:06:17.394Z,40672.00
2019-04-18T11:07:03.409Z,36352.00
2019-04-18T11:08:04.223Z,38592.00
2019-04-18T11:09:03.430Z,37632.00
2019-04-18T11:10:04.004Z,29088.00
2019-04-18T11:11:04.038Z,25728.00
2019-04-18T11:12:03.904Z,41440.00
2019-04-18T11:13:03.392Z,48736.00
2019-04-18T11:14:03.390Z,51776.00
2019-04-18T11:15:03.389Z,49600.00
2019-04-18T11:16:03.420Z,59936.00
2019-04-18T11:17:04.175Z,58176.00
2019-04-18T11:18:03.378Z,50624.00
2019-04-18T11:19:04.067Z,34688.00
2019-04-18T11:20:03.416Z,42016.00
2019-04-18T11:21:03.579Z,43712.00
2019-04-18T11:22:03.491Z,28896.00
2019-04-18T11:23:03.835Z,42944.00
2019-04-18T11:24:04.349Z,51392.00
2019-04-18T11:25:03.816Z,48128.00
2019-04-18T11:26:04.382Z,36288.00
2019-04-18T11:27:03.341Z,44416.00
2019-04-18T11:28:03.371Z,22528.00
2019-04-18T11:29:03.660Z,46560.00
2019-04-18T11:30:04.468Z,33472.00
2019-04-18T11:31:03.334Z,29568.00
2019-04-18T11:32:04.166Z,15104.00
2019-04-18T11:33:04.159Z,32256.00
2019-04-18T11:34:03.353Z,58080.00
2019-04-18T11:35:03.307Z,62208.00
2019-04-18T11:36:04.051Z,26400.00
2019-04-18T11:37:03.305Z,27136.00
2019-04-18T11:38:03.686Z,50656.00
2019-04-18T11:39:03.480Z,50432.00
2019-04-18T11:40:03.302Z,32576.00
2019-04-18T11:41:04.054Z,54048.00
2019-04-18T11:42:03.676Z,19680.00
2019-04-18T11:43:06.420Z,42176.00
2019-04-18T11:44:03.698Z,54272.00
2019-04-18T11:45:03.727Z,14464.00
2019-04-18T11:46:03.335Z,25312.00
2019-04-18T11:47:03.285Z,28064.00
2019-04-18T11:48:03.321Z,33984.00
2019-04-18T11:49:03.881Z,27584.00
2019-04-18T11:50:03.886Z,37472.00
2019-04-18T11:51:03.446Z,36736.00
2019-04-18T11:52:03.253Z,11968.00
2019-04-18T11:53:03.251Z,25504.00
2019-04-18T11:54:03.280Z,15296.00
2019-04-18T11:55:03.353Z,23520.00
2019-04-18T11:56:06.966Z,49184.00
2019-04-18T11:57:03.681Z,10144.00
2019-04-18T11:58:03.239Z,64736.00
2019-04-18T11:59:03.824Z,19904.00
2019-04-18T12:00:03.226Z,9376.00
2019-04-18T12:01:18.006Z,29792.00
2019-04-18T12:02:06.258Z,81440.00
2019-04-18T12:03:03.289Z,5728.00
2019-04-18T12:04:03.229Z,35936.00
2019-04-18T12:05:03.238Z,32352.00
2019-04-18T12:06:03.212Z,36480.00
2019-04-18T12:07:04.534Z,77536.00
2019-04-18T12:08:03.200Z,46848.00
2019-04-18T12:09:03.212Z,57664.00
2019-04-18T12:10:03.843Z,80256.00
2019-04-18T12:11:03.794Z,95840.00
2019-04-18T12:12:03.193Z,85216.00
2019-04-18T12:13:03.659Z,80096.00
2019-04-18T12:14:03.503Z,73440.00
2019-04-18T12:15:03.246Z,65696.00
2019-04-18T12:16:05.264Z,72640.00
2019-04-18T12:17:03.685Z,50464.00
2019-04-18T12:18:03.188Z,84608.00
2019-04-18T12:19:03.364Z,73408.00
2019-04-18T12:20:03.187Z,79904.00
2019-04-18T12:21:03.217Z,58496.00
2019-04-18T12:22:03.187Z,75200.00
2019-04-18T12:23:08.966Z,74720.00
2019-04-18T12:24:03.284Z,57312.00